sensor_id;sensor_type;location;lat;lon;timestamp;P1;durP1;ratioP1;P2;durP2;ratioP2
47413;SDS011;33163;0.000;0.000;2023-04-03T00:01:08;2.72;;;1.33;;
47413;SDS011;33163;0.000;0.000;2023-04-03T00:03:36;1.73;;;1.10;;
47413;SDS011;33163;0.000;0.000;2023-04-03T00:06:03;1.27;;;1.05;;
47413;SDS011;33163;0.000;0.000;2023-04-03T00:08:33;5.13;;;1.60;;
47413;SDS011;33163;0.000;0.000;2023-04-03T00:11:00;1.98;;;0.90;;
47413;SDS011;33163;0.000;0.000;2023-04-03T00:13:27;1.10;;;1.00;;
47413;SDS011;33163;0.000;0.000;2023-04-03T00:15:54;1.77;;;1.27;;
47413;SDS011;33163;0.000;0.000;2023-04-03T00:18:21;2.05;;;1.10;;
47413;SDS011;33163;0.000;0.000;2023-04-03T00:20:48;1.88;;;0.98;;
47413;SDS011;33163;0.000;0.000;2023-04-03T00:23:15;2.08;;;1.23;;
47413;SDS011;33163;0.000;0.000;2023-04-03T00:25:43;2.95;;;1.30;;
47413;SDS011;33163;0.000;0.000;2023-04-03T00:28:13;2.45;;;1.23;;
47413;SDS011;33163;0.000;0.000;2023-04-03T00:30:39;2.33;;;1.42;;
47413;SDS011;33163;0.000;0.000;2023-04-03T00:33:06;2.78;;;0.93;;
47413;SDS011;33163;0.000;0.000;2023-04-03T00:35:34;1.48;;;0.93;;
47413;SDS011;33163;0.000;0.000;2023-04-03T00:38:01;2.40;;;1.33;;
47413;SDS011;33163;0.000;0.000;2023-04-03T00:40:27;1.70;;;1.10;;
47413;SDS011;33163;0.000;0.000;2023-04-03T00:43:01;2.47;;;1.10;;
47413;SDS011;33163;0.000;0.000;2023-04-03T00:45:35;1.77;;;1.17;;
47413;SDS011;33163;0.000;0.000;2023-04-03T00:48:04;1.77;;;1.20;;
47413;SDS011;33163;0.000;0.000;2023-04-03T00:50:34;2.53;;;1.33;;
47413;SDS011;33163;0.000;0.000;2023-04-03T00:53:04;2.25;;;1.13;;
47413;SDS011;33163;0.000;0.000;2023-04-03T00:55:32;1.33;;;0.90;;
47413;SDS011;33163;0.000;0.000;2023-04-03T00:58:02;3.53;;;1.48;;
47413;SDS011;33163;0.000;0.000;2023-04-03T01:00:31;2.30;;;0.90;;
47413;SDS011;33163;0.000;0.000;2023-04-03T01:02:59;1.77;;;1.10;;
47413;SDS011;33163;0.000;0.000;2023-04-03T01:05:26;1.42;;;1.08;;
47413;SDS011;33163;0.000;0.000;2023-04-03T01:07:52;1.23;;;0.75;;
47413;SDS011;33163;0.000;0.000;2023-04-03T01:10:20;1.20;;;1.10;;
47413;SDS011;33163;0.000;0.000;2023-04-03T01:12:47;0.95;;;0.80;;
47413;SDS011;33163;0.000;0.000;2023-04-03T01:15:18;3.08;;;0.90;;
47413;SDS011;33163;0.000;0.000;2023-04-03T01:17:48;2.83;;;1.10;;
47413;SDS011;33163;0.000;0.000;2023-04-03T01:20:29;1.85;;;1.05;;
47413;SDS011;33163;0.000;0.000;2023-04-03T01:23:17;5.63;;;1.08;;
47413;SDS011;33163;0.000;0.000;2023-04-03T01:25:54;1.73;;;1.00;;
47413;SDS011;33163;0.000;0.000;2023-04-03T01:28:24;1.83;;;0.93;;
47413;SDS011;33163;0.000;0.000;2023-04-03T01:30:56;1.50;;;0.90;;
47413;SDS011;33163;0.000;0.000;2023-04-03T01:33:30;3.67;;;2.00;;
47413;SDS011;33163;0.000;0.000;2023-04-03T01:35:56;1.73;;;1.10;;
47413;SDS011;33163;0.000;0.000;2023-04-03T01:38:23;2.28;;;1.20;;
47413;SDS011;33163;0.000;0.000;2023-04-03T01:40:50;4.78;;;0.80;;
47413;SDS011;33163;0.000;0.000;2023-04-03T01:43:17;2.17;;;1.00;;
47413;SDS011;33163;0.000;0.000;2023-04-03T01:45:44;0.95;;;0.90;;
47413;SDS011;33163;0.000;0.000;2023-04-03T01:48:11;1.73;;;0.90;;
47413;SDS011;33163;0.000;0.000;2023-04-03T01:50:39;2.17;;;1.17;;
47413;SDS011;33163;0.000;0.000;2023-04-03T01:53:06;2.38;;;1.00;;
47413;SDS011;33163;0.000;0.000;2023-04-03T01:55:33;2.13;;;0.95;;
47413;SDS011;33163;0.000;0.000;2023-04-03T01:58:00;1.17;;;0.90;;
47413;SDS011;33163;0.000;0.000;2023-04-03T02:00:27;1.20;;;1.00;;
47413;SDS011;33163;0.000;0.000;2023-04-03T02:02:53;1.08;;;0.93;;
47413;SDS011;33163;0.000;0.000;2023-04-03T02:05:20;3.15;;;0.95;;
47413;SDS011;33163;0.000;0.000;2023-04-03T02:07:48;2.08;;;1.20;;
47413;SDS011;33163;0.000;0.000;2023-04-03T02:10:15;1.88;;;0.70;;
47413;SDS011;33163;0.000;0.000;2023-04-03T02:12:42;1.17;;;0.90;;
47413;SDS011;33163;0.000;0.000;2023-04-03T02:15:09;1.08;;;0.88;;
47413;SDS011;33163;0.000;0.000;2023-04-03T02:17:36;2.88;;;1.08;;
47413;SDS011;33163;0.000;0.000;2023-04-03T02:20:03;1.20;;;0.95;;
47413;SDS011;33163;0.000;0.000;2023-04-03T02:22:30;2.17;;;1.42;;
47413;SDS011;33163;0.000;0.000;2023-04-03T02:24:59;1.15;;;0.75;;
47413;SDS011;33163;0.000;0.000;2023-04-03T02:27:25;1.13;;;0.88;;
47413;SDS011;33163;0.000;0.000;2023-04-03T02:29:52;1.35;;;1.25;;
47413;SDS011;33163;0.000;0.000;2023-04-03T02:32:19;1.52;;;0.98;;
47413;SDS011;33163;0.000;0.000;2023-04-03T02:34:46;2.90;;;0.90;;
47413;SDS011;33163;0.000;0.000;2023-04-03T02:37:12;1.67;;;0.93;;
47413;SDS011;33163;0.000;0.000;2023-04-03T02:39:39;4.20;;;0.85;;
47413;SDS011;33163;0.000;0.000;2023-04-03T02:42:07;0.93;;;0.82;;
47413;SDS011;33163;0.000;0.000;2023-04-03T02:44:34;1.20;;;1.02;;
47413;SDS011;33163;0.000;0.000;2023-04-03T02:47:01;1.02;;;0.95;;
47413;SDS011;33163;0.000;0.000;2023-04-03T02:49:28;1.77;;;1.00;;
47413;SDS011;33163;0.000;0.000;2023-04-03T02:51:55;0.93;;;0.80;;
47413;SDS011;33163;0.000;0.000;2023-04-03T02:54:21;1.42;;;0.95;;
47413;SDS011;33163;0.000;0.000;2023-04-03T02:56:49;2.13;;;1.00;;
47413;SDS011;33163;0.000;0.000;2023-04-03T02:59:17;1.83;;;0.90;;
47413;SDS011;33163;0.000;0.000;2023-04-03T03:01:44;0.98;;;0.77;;
47413;SDS011;33163;0.000;0.000;2023-04-03T03:04:11;1.58;;;1.00;;
47413;SDS011;33163;0.000;0.000;2023-04-03T03:06:38;0.88;;;0.80;;
47413;SDS011;33163;0.000;0.000;2023-04-03T03:09:06;1.50;;;1.00;;
47413;SDS011;33163;0.000;0.000;2023-04-03T03:11:33;1.65;;;0.93;;
47413;SDS011;33163;0.000;0.000;2023-04-03T03:13:59;1.10;;;1.00;;
47413;SDS011;33163;0.000;0.000;2023-04-03T03:16:27;1.33;;;0.85;;
47413;SDS011;33163;0.000;0.000;2023-04-03T03:18:54;2.50;;;1.00;;
47413;SDS011;33163;0.000;0.000;2023-04-03T03:21:21;1.63;;;1.00;;
47413;SDS011;33163;0.000;0.000;2023-04-03T03:23:48;1.38;;;0.80;;
47413;SDS011;33163;0.000;0.000;2023-04-03T03:26:15;1.00;;;0.80;;
47413;SDS011;33163;0.000;0.000;2023-04-03T03:28:41;1.25;;;0.82;;
47413;SDS011;33163;0.000;0.000;2023-04-03T03:31:08;2.22;;;0.90;;
47413;SDS011;33163;0.000;0.000;2023-04-03T03:33:37;1.13;;;0.93;;
47413;SDS011;33163;0.000;0.000;2023-04-03T03:36:04;0.80;;;0.80;;
47413;SDS011;33163;0.000;0.000;2023-04-03T03:38:31;1.02;;;0.77;;
47413;SDS011;33163;0.000;0.000;2023-04-03T03:40:58;1.75;;;1.02;;
47413;SDS011;33163;0.000;0.000;2023-04-03T03:43:25;1.98;;;1.10;;
47413;SDS011;33163;0.000;0.000;2023-04-03T03:45:52;1.33;;;0.93;;
47413;SDS011;33163;0.000;0.000;2023-04-03T03:48:18;1.55;;;1.05;;
47413;SDS011;33163;0.000;0.000;2023-04-03T03:50:47;0.73;;;0.73;;
47413;SDS011;33163;0.000;0.000;2023-04-03T03:53:14;1.05;;;0.93;;
47413;SDS011;33163;0.000;0.000;2023-04-03T03:55:41;2.33;;;1.20;;
47413;SDS011;33163;0.000;0.000;2023-04-03T03:58:08;1.27;;;0.80;;
47413;SDS011;33163;0.000;0.000;2023-04-03T04:00:35;1.40;;;0.90;;
47413;SDS011;33163;0.000;0.000;2023-04-03T04:03:02;1.60;;;0.70;;
47413;SDS011;33163;0.000;0.000;2023-04-03T04:05:29;1.90;;;0.90;;
47413;SDS011;33163;0.000;0.000;2023-04-03T04:07:57;1.52;;;0.88;;
47413;SDS011;33163;0.000;0.000;2023-04-03T04:10:24;1.92;;;0.90;;
47413;SDS011;33163;0.000;0.000;2023-04-03T04:12:51;1.63;;;1.00;;
47413;SDS011;33163;0.000;0.000;2023-04-03T04:15:18;2.55;;;1.20;;
47413;SDS011;33163;0.000;0.000;2023-04-03T04:17:46;0.88;;;0.65;;
47413;SDS011;33163;0.000;0.000;2023-04-03T04:20:13;2.00;;;0.77;;
47413;SDS011;33163;0.000;0.000;2023-04-03T04:22:40;1.55;;;1.05;;
47413;SDS011;33163;0.000;0.000;2023-04-03T04:25:08;1.90;;;0.85;;
47413;SDS011;33163;0.000;0.000;2023-04-03T04:27:35;1.77;;;0.95;;
47413;SDS011;33163;0.000;0.000;2023-04-03T04:30:03;2.67;;;1.40;;
47413;SDS011;33163;0.000;0.000;2023-04-03T04:32:31;1.98;;;0.88;;
47413;SDS011;33163;0.000;0.000;2023-04-03T04:34:57;1.33;;;1.05;;
47413;SDS011;33163;0.000;0.000;2023-04-03T04:37:24;1.60;;;1.02;;
47413;SDS011;33163;0.000;0.000;2023-04-03T04:39:51;1.27;;;1.00;;
47413;SDS011;33163;0.000;0.000;2023-04-03T04:42:19;0.60;;;0.60;;
47413;SDS011;33163;0.000;0.000;2023-04-03T04:44:46;1.27;;;0.70;;
47413;SDS011;33163;0.000;0.000;2023-04-03T04:47:14;1.63;;;1.00;;
47413;SDS011;33163;0.000;0.000;2023-04-03T04:49:41;1.27;;;1.00;;
47413;SDS011;33163;0.000;0.000;2023-04-03T04:52:07;2.08;;;1.10;;
47413;SDS011;33163;0.000;0.000;2023-04-03T04:54:34;1.90;;;0.90;;
47413;SDS011;33163;0.000;0.000;2023-04-03T04:57:01;1.42;;;0.73;;
47413;SDS011;33163;0.000;0.000;2023-04-03T04:59:29;2.05;;;0.98;;
47413;SDS011;33163;0.000;0.000;2023-04-03T05:01:55;0.68;;;0.60;;
47413;SDS011;33163;0.000;0.000;2023-04-03T05:04:22;2.00;;;0.90;;
47413;SDS011;33163;0.000;0.000;2023-04-03T05:06:49;3.15;;;1.00;;
47413;SDS011;33163;0.000;0.000;2023-04-03T05:09:16;1.27;;;1.10;;
47413;SDS011;33163;0.000;0.000;2023-04-03T05:11:43;1.00;;;0.90;;
47413;SDS011;33163;0.000;0.000;2023-04-03T05:14:10;2.03;;;1.10;;
47413;SDS011;33163;0.000;0.000;2023-04-03T05:16:38;1.55;;;1.00;;
47413;SDS011;33163;0.000;0.000;2023-04-03T05:19:04;1.80;;;1.10;;
47413;SDS011;33163;0.000;0.000;2023-04-03T05:21:31;1.90;;;0.90;;
47413;SDS011;33163;0.000;0.000;2023-04-03T05:23:58;0.70;;;0.70;;
47413;SDS011;33163;0.000;0.000;2023-04-03T05:26:27;2.42;;;1.08;;
47413;SDS011;33163;0.000;0.000;2023-04-03T05:28:54;2.65;;;1.15;;
47413;SDS011;33163;0.000;0.000;2023-04-03T05:31:21;1.15;;;0.82;;
47413;SDS011;33163;0.000;0.000;2023-04-03T05:33:49;1.15;;;0.80;;
47413;SDS011;33163;0.000;0.000;2023-04-03T05:36:16;2.33;;;0.93;;
47413;SDS011;33163;0.000;0.000;2023-04-03T05:38:43;2.95;;;1.10;;
47413;SDS011;33163;0.000;0.000;2023-04-03T05:41:10;3.10;;;0.93;;
47413;SDS011;33163;0.000;0.000;2023-04-03T05:43:37;1.83;;;1.00;;
47413;SDS011;33163;0.000;0.000;2023-04-03T05:46:04;3.15;;;1.15;;
47413;SDS011;33163;0.000;0.000;2023-04-03T05:48:34;1.08;;;0.98;;
47413;SDS011;33163;0.000;0.000;2023-04-03T05:51:03;1.30;;;1.08;;
47413;SDS011;33163;0.000;0.000;2023-04-03T05:53:31;1.38;;;0.88;;
47413;SDS011;33163;0.000;0.000;2023-04-03T05:56:01;3.42;;;1.30;;
47413;SDS011;33163;0.000;0.000;2023-04-03T05:58:28;2.88;;;1.02;;
47413;SDS011;33163;0.000;0.000;2023-04-03T06:00:55;9.38;;;1.48;;
47413;SDS011;33163;0.000;0.000;2023-04-03T06:03:22;8.95;;;1.50;;
47413;SDS011;33163;0.000;0.000;2023-04-03T06:05:49;6.35;;;1.25;;
47413;SDS011;33163;0.000;0.000;2023-04-03T06:08:17;3.95;;;1.60;;
47413;SDS011;33163;0.000;0.000;2023-04-03T06:10:44;2.90;;;1.52;;
47413;SDS011;33163;0.000;0.000;2023-04-03T06:13:11;4.85;;;1.42;;
47413;SDS011;33163;0.000;0.000;2023-04-03T06:15:38;3.78;;;1.40;;
47413;SDS011;33163;0.000;0.000;2023-04-03T06:18:05;5.07;;;1.23;;
47413;SDS011;33163;0.000;0.000;2023-04-03T06:20:33;7.10;;;1.55;;
47413;SDS011;33163;0.000;0.000;2023-04-03T06:22:59;11.68;;;1.55;;
47413;SDS011;33163;0.000;0.000;2023-04-03T06:25:28;4.43;;;1.55;;
47413;SDS011;33163;0.000;0.000;2023-04-03T06:27:55;2.65;;;1.25;;
47413;SDS011;33163;0.000;0.000;2023-04-03T06:30:21;2.88;;;1.00;;
47413;SDS011;33163;0.000;0.000;2023-04-03T06:32:48;6.90;;;1.60;;
47413;SDS011;33163;0.000;0.000;2023-04-03T06:35:15;6.15;;;1.55;;
47413;SDS011;33163;0.000;0.000;2023-04-03T06:37:42;4.20;;;1.42;;
47413;SDS011;33163;0.000;0.000;2023-04-03T06:40:11;4.60;;;1.50;;
47413;SDS011;33163;0.000;0.000;2023-04-03T06:42:46;9.73;;;1.42;;
47413;SDS011;33163;0.000;0.000;2023-04-03T06:45:12;2.22;;;0.98;;
47413;SDS011;33163;0.000;0.000;2023-04-03T06:47:40;12.27;;;1.92;;
47413;SDS011;33163;0.000;0.000;2023-04-03T06:50:08;5.80;;;1.67;;
47413;SDS011;33163;0.000;0.000;2023-04-03T06:52:36;4.68;;;1.30;;
47413;SDS011;33163;0.000;0.000;2023-04-03T06:55:05;2.42;;;1.45;;
47413;SDS011;33163;0.000;0.000;2023-04-03T06:57:32;2.92;;;1.40;;
47413;SDS011;33163;0.000;0.000;2023-04-03T07:00:00;14.65;;;1.65;;
47413;SDS011;33163;0.000;0.000;2023-04-03T07:02:29;4.35;;;1.10;;
47413;SDS011;33163;0.000;0.000;2023-04-03T07:04:55;6.63;;;1.23;;
47413;SDS011;33163;0.000;0.000;2023-04-03T07:07:22;4.53;;;2.00;;
47413;SDS011;33163;0.000;0.000;2023-04-03T07:09:49;9.35;;;1.35;;
47413;SDS011;33163;0.000;0.000;2023-04-03T07:12:16;9.35;;;1.85;;
47413;SDS011;33163;0.000;0.000;2023-04-03T07:14:43;2.90;;;1.08;;
47413;SDS011;33163;0.000;0.000;2023-04-03T07:17:11;3.13;;;1.33;;
47413;SDS011;33163;0.000;0.000;2023-04-03T07:19:38;3.17;;;1.08;;
47413;SDS011;33163;0.000;0.000;2023-04-03T07:22:05;5.65;;;1.50;;
47413;SDS011;33163;0.000;0.000;2023-04-03T07:24:32;4.65;;;1.33;;
47413;SDS011;33163;0.000;0.000;2023-04-03T07:27:00;3.97;;;1.85;;
47413;SDS011;33163;0.000;0.000;2023-04-03T07:29:27;2.08;;;1.00;;
47413;SDS011;33163;0.000;0.000;2023-04-03T07:31:55;6.25;;;1.17;;
47413;SDS011;33163;0.000;0.000;2023-04-03T07:34:23;3.83;;;1.92;;
47413;SDS011;33163;0.000;0.000;2023-04-03T07:36:50;3.50;;;1.30;;
47413;SDS011;33163;0.000;0.000;2023-04-03T07:39:17;2.97;;;1.05;;
47413;SDS011;33163;0.000;0.000;2023-04-03T07:41:44;3.78;;;1.10;;
47413;SDS011;33163;0.000;0.000;2023-04-03T07:44:11;3.53;;;1.30;;
47413;SDS011;33163;0.000;0.000;2023-04-03T07:46:38;1.95;;;1.08;;
47413;SDS011;33163;0.000;0.000;2023-04-03T07:49:05;1.73;;;0.90;;
47413;SDS011;33163;0.000;0.000;2023-04-03T07:51:33;3.45;;;1.60;;
47413;SDS011;33163;0.000;0.000;2023-04-03T07:54:00;3.85;;;1.60;;
47413;SDS011;33163;0.000;0.000;2023-04-03T07:56:27;5.85;;;1.60;;
47413;SDS011;33163;0.000;0.000;2023-04-03T07:58:54;3.60;;;1.40;;
47413;SDS011;33163;0.000;0.000;2023-04-03T08:01:21;3.92;;;1.15;;
47413;SDS011;33163;0.000;0.000;2023-04-03T08:03:48;1.52;;;1.10;;
47413;SDS011;33163;0.000;0.000;2023-04-03T08:06:15;5.25;;;1.23;;
47413;SDS011;33163;0.000;0.000;2023-04-03T08:08:43;2.28;;;1.17;;
47413;SDS011;33163;0.000;0.000;2023-04-03T08:11:11;2.33;;;1.02;;
47413;SDS011;33163;0.000;0.000;2023-04-03T08:13:38;2.45;;;1.33;;
47413;SDS011;33163;0.000;0.000;2023-04-03T08:16:07;2.25;;;1.30;;
47413;SDS011;33163;0.000;0.000;2023-04-03T08:18:36;2.60;;;1.20;;
47413;SDS011;33163;0.000;0.000;2023-04-03T08:21:05;3.03;;;1.30;;
47413;SDS011;33163;0.000;0.000;2023-04-03T08:23:33;3.53;;;1.30;;
47413;SDS011;33163;0.000;0.000;2023-04-03T08:26:06;2.00;;;0.98;;
47413;SDS011;33163;0.000;0.000;2023-04-03T08:28:34;1.80;;;1.08;;
47413;SDS011;33163;0.000;0.000;2023-04-03T08:31:04;2.10;;;1.08;;
47413;SDS011;33163;0.000;0.000;2023-04-03T08:33:32;3.10;;;1.33;;
47413;SDS011;33163;0.000;0.000;2023-04-03T08:35:58;2.25;;;1.25;;
47413;SDS011;33163;0.000;0.000;2023-04-03T08:38:25;2.22;;;1.23;;
47413;SDS011;33163;0.000;0.000;2023-04-03T08:40:59;1.85;;;1.38;;
47413;SDS011;33163;0.000;0.000;2023-04-03T08:43:31;2.63;;;1.40;;
47413;SDS011;33163;0.000;0.000;2023-04-03T08:46:08;2.67;;;1.60;;
47413;SDS011;33163;0.000;0.000;2023-04-03T08:48:40;1.85;;;0.95;;
47413;SDS011;33163;0.000;0.000;2023-04-03T08:51:10;2.80;;;1.10;;
47413;SDS011;33163;0.000;0.000;2023-04-03T08:53:40;1.23;;;0.93;;
47413;SDS011;33163;0.000;0.000;2023-04-03T08:56:10;1.88;;;1.13;;
47413;SDS011;33163;0.000;0.000;2023-04-03T08:58:42;2.47;;;1.10;;
47413;SDS011;33163;0.000;0.000;2023-04-03T09:01:16;1.80;;;1.17;;
47413;SDS011;33163;0.000;0.000;2023-04-03T09:03:46;2.80;;;1.13;;
47413;SDS011;33163;0.000;0.000;2023-04-03T09:06:13;3.88;;;1.65;;
47413;SDS011;33163;0.000;0.000;2023-04-03T09:08:44;2.67;;;1.15;;
47413;SDS011;33163;0.000;0.000;2023-04-03T09:11:16;2.60;;;1.02;;
47413;SDS011;33163;0.000;0.000;2023-04-03T09:13:51;2.70;;;1.30;;
47413;SDS011;33163;0.000;0.000;2023-04-03T09:16:25;4.55;;;1.20;;
47413;SDS011;33163;0.000;0.000;2023-04-03T09:19:02;1.10;;;1.00;;
47413;SDS011;33163;0.000;0.000;2023-04-03T09:21:38;4.03;;;1.27;;
47413;SDS011;33163;0.000;0.000;2023-04-03T09:24:07;2.72;;;0.95;;
47413;SDS011;33163;0.000;0.000;2023-04-03T09:26:39;3.88;;;1.35;;
47413;SDS011;33163;0.000;0.000;2023-04-03T09:29:12;2.00;;;1.00;;
47413;SDS011;33163;0.000;0.000;2023-04-03T09:31:44;2.63;;;1.08;;
47413;SDS011;33163;0.000;0.000;2023-04-03T09:34:14;2.03;;;1.10;;
47413;SDS011;33163;0.000;0.000;2023-04-03T09:39:15;3.13;;;0.90;;
47413;SDS011;33163;0.000;0.000;2023-04-03T09:41:54;2.13;;;0.98;;
47413;SDS011;33163;0.000;0.000;2023-04-03T09:44:27;2.47;;;1.08;;
47413;SDS011;33163;0.000;0.000;2023-04-03T09:46:54;1.80;;;1.13;;
47413;SDS011;33163;0.000;0.000;2023-04-03T09:49:21;1.92;;;0.75;;
47413;SDS011;33163;0.000;0.000;2023-04-03T09:51:48;3.00;;;1.20;;
47413;SDS011;33163;0.000;0.000;2023-04-03T09:54:26;3.65;;;1.05;;
47413;SDS011;33163;0.000;0.000;2023-04-03T09:57:06;2.53;;;0.82;;
47413;SDS011;33163;0.000;0.000;2023-04-03T09:59:37;1.15;;;0.70;;
47413;SDS011;33163;0.000;0.000;2023-04-03T10:02:19;1.52;;;1.20;;
47413;SDS011;33163;0.000;0.000;2023-04-03T10:04:50;1.77;;;0.82;;
47413;SDS011;33163;0.000;0.000;2023-04-03T10:07:27;2.15;;;1.00;;
47413;SDS011;33163;0.000;0.000;2023-04-03T10:10:00;0.57;;;0.52;;
47413;SDS011;33163;0.000;0.000;2023-04-03T10:12:29;2.17;;;1.02;;
47413;SDS011;33163;0.000;0.000;2023-04-03T10:14:57;2.05;;;0.85;;
47413;SDS011;33163;0.000;0.000;2023-04-03T10:17:29;3.53;;;1.48;;
47413;SDS011;33163;0.000;0.000;2023-04-03T10:20:06;3.42;;;1.23;;
47413;SDS011;33163;0.000;0.000;2023-04-03T10:22:47;1.88;;;1.00;;
47413;SDS011;33163;0.000;0.000;2023-04-03T10:25:24;1.00;;;0.80;;
47413;SDS011;33163;0.000;0.000;2023-04-03T10:27:55;1.58;;;1.30;;
47413;SDS011;33163;0.000;0.000;2023-04-03T10:30:30;1.52;;;1.05;;
47413;SDS011;33163;0.000;0.000;2023-04-03T10:33:08;1.35;;;0.95;;
47413;SDS011;33163;0.000;0.000;2023-04-03T10:35:48;1.23;;;0.80;;
47413;SDS011;33163;0.000;0.000;2023-04-03T10:38:29;1.40;;;0.82;;
47413;SDS011;33163;0.000;0.000;2023-04-03T10:41:04;2.25;;;1.02;;
47413;SDS011;33163;0.000;0.000;2023-04-03T10:43:39;1.55;;;0.63;;
47413;SDS011;33163;0.000;0.000;2023-04-03T10:46:13;1.20;;;1.00;;
47413;SDS011;33163;0.000;0.000;2023-04-03T10:48:46;2.05;;;0.75;;
47413;SDS011;33163;0.000;0.000;2023-04-03T10:51:25;5.78;;;0.85;;
47413;SDS011;33163;0.000;0.000;2023-04-03T10:53:56;1.27;;;0.80;;
47413;SDS011;33163;0.000;0.000;2023-04-03T10:56:32;2.35;;;0.90;;
47413;SDS011;33163;0.000;0.000;2023-04-03T10:59:07;1.50;;;1.00;;
47413;SDS011;33163;0.000;0.000;2023-04-03T11:01:46;0.93;;;0.63;;
47413;SDS011;33163;0.000;0.000;2023-04-03T11:04:16;1.00;;;0.70;;
47413;SDS011;33163;0.000;0.000;2023-04-03T11:06:46;1.67;;;0.52;;
47413;SDS011;33163;0.000;0.000;2023-04-03T11:09:18;1.88;;;0.75;;
47413;SDS011;33163;0.000;0.000;2023-04-03T11:11:50;1.10;;;0.75;;
47413;SDS011;33163;0.000;0.000;2023-04-03T11:14:22;2.20;;;0.70;;
47413;SDS011;33163;0.000;0.000;2023-04-03T11:17:01;1.80;;;0.68;;
47413;SDS011;33163;0.000;0.000;2023-04-03T11:19:35;1.50;;;0.75;;
47413;SDS011;33163;0.000;0.000;2023-04-03T11:22:09;1.48;;;0.68;;
47413;SDS011;33163;0.000;0.000;2023-04-03T11:24:42;1.85;;;1.20;;
47413;SDS011;33163;0.000;0.000;2023-04-03T11:27:14;0.98;;;0.60;;
47413;SDS011;33163;0.000;0.000;2023-04-03T11:29:47;1.83;;;0.60;;
47413;SDS011;33163;0.000;0.000;2023-04-03T11:32:27;1.67;;;0.80;;
47413;SDS011;33163;0.000;0.000;2023-04-03T11:35:07;1.05;;;0.70;;
47413;SDS011;33163;0.000;0.000;2023-04-03T11:37:37;0.77;;;0.63;;
47413;SDS011;33163;0.000;0.000;2023-04-03T11:40:08;0.70;;;0.65;;
47413;SDS011;33163;0.000;0.000;2023-04-03T11:42:47;1.23;;;0.60;;
47413;SDS011;33163;0.000;0.000;2023-04-03T11:45:25;1.13;;;0.85;;
47413;SDS011;33163;0.000;0.000;2023-04-03T11:48:00;1.42;;;0.60;;
47413;SDS011;33163;0.000;0.000;2023-04-03T11:50:39;1.92;;;0.85;;
47413;SDS011;33163;0.000;0.000;2023-04-03T12:01:50;1.00;;;0.80;;
47413;SDS011;33163;0.000;0.000;2023-04-03T12:04:19;0.70;;;0.60;;
47413;SDS011;33163;0.000;0.000;2023-04-03T12:12:30;1.70;;;0.75;;
47413;SDS011;33163;0.000;0.000;2023-04-03T12:17:47;1.15;;;0.60;;
47413;SDS011;33163;0.000;0.000;2023-04-03T12:23:26;1.15;;;0.55;;
47413;SDS011;33163;0.000;0.000;2023-04-03T12:26:03;2.35;;;0.52;;
47413;SDS011;33163;0.000;0.000;2023-04-03T12:28:35;2.05;;;0.90;;
47413;SDS011;33163;0.000;0.000;2023-04-03T12:31:05;0.88;;;0.65;;
47413;SDS011;33163;0.000;0.000;2023-04-03T12:33:38;0.88;;;0.68;;
47413;SDS011;33163;0.000;0.000;2023-04-03T12:36:23;0.90;;;0.60;;
47413;SDS011;33163;0.000;0.000;2023-04-03T12:39:14;1.00;;;0.90;;
47413;SDS011;33163;0.000;0.000;2023-04-03T12:42:12;0.85;;;0.60;;
47413;SDS011;33163;0.000;0.000;2023-04-03T12:45:03;2.20;;;0.60;;
47413;SDS011;33163;0.000;0.000;2023-04-03T12:47:43;0.70;;;0.60;;
47413;SDS011;33163;0.000;0.000;2023-04-03T12:50:18;1.15;;;0.60;;
47413;SDS011;33163;0.000;0.000;2023-04-03T12:52:51;1.20;;;0.60;;
47413;SDS011;33163;0.000;0.000;2023-04-03T12:55:23;0.73;;;0.60;;
47413;SDS011;33163;0.000;0.000;2023-04-03T12:57:51;0.90;;;0.50;;
47413;SDS011;33163;0.000;0.000;2023-04-03T13:00:25;1.25;;;0.70;;
47413;SDS011;33163;0.000;0.000;2023-04-03T13:02:55;0.60;;;0.60;;
47413;SDS011;33163;0.000;0.000;2023-04-03T13:05:22;0.95;;;0.60;;
47413;SDS011;33163;0.000;0.000;2023-04-03T13:07:52;0.90;;;0.50;;
47413;SDS011;33163;0.000;0.000;2023-04-03T13:10:25;1.30;;;0.50;;
47413;SDS011;33163;0.000;0.000;2023-04-03T13:12:53;1.08;;;0.70;;
47413;SDS011;33163;0.000;0.000;2023-04-03T13:15:22;0.50;;;0.50;;
47413;SDS011;33163;0.000;0.000;2023-04-03T13:17:49;0.63;;;0.50;;
47413;SDS011;33163;0.000;0.000;2023-04-03T13:20:19;2.03;;;0.93;;
47413;SDS011;33163;0.000;0.000;2023-04-03T13:22:51;1.73;;;0.77;;
47413;SDS011;33163;0.000;0.000;2023-04-03T13:25:22;0.85;;;0.70;;
47413;SDS011;33163;0.000;0.000;2023-04-03T13:27:54;1.45;;;0.68;;
47413;SDS011;33163;0.000;0.000;2023-04-03T13:30:24;0.75;;;0.70;;
47413;SDS011;33163;0.000;0.000;2023-04-03T13:32:53;0.63;;;0.57;;
47413;SDS011;33163;0.000;0.000;2023-04-03T13:35:25;1.27;;;0.60;;
47413;SDS011;33163;0.000;0.000;2023-04-03T13:37:54;2.15;;;0.90;;
47413;SDS011;33163;0.000;0.000;2023-04-03T13:40:22;0.82;;;0.60;;
47413;SDS011;33163;0.000;0.000;2023-04-03T13:42:59;0.75;;;0.60;;
47413;SDS011;33163;0.000;0.000;2023-04-03T13:45:28;0.60;;;0.60;;
47413;SDS011;33163;0.000;0.000;2023-04-03T13:48:08;0.68;;;0.47;;
47413;SDS011;33163;0.000;0.000;2023-04-03T13:50:50;0.82;;;0.52;;
47413;SDS011;33163;0.000;0.000;2023-04-03T13:53:19;1.17;;;0.52;;
47413;SDS011;33163;0.000;0.000;2023-04-03T13:55:55;0.73;;;0.60;;
47413;SDS011;33163;0.000;0.000;2023-04-03T13:58:25;0.32;;;0.32;;
47413;SDS011;33163;0.000;0.000;2023-04-03T14:00:54;0.65;;;0.50;;
47413;SDS011;33163;0.000;0.000;2023-04-03T14:03:22;0.82;;;0.55;;
47413;SDS011;33163;0.000;0.000;2023-04-03T14:05:51;1.15;;;0.55;;
47413;SDS011;33163;0.000;0.000;2023-04-03T14:08:19;2.08;;;0.60;;
47413;SDS011;33163;0.000;0.000;2023-04-03T14:10:46;5.63;;;0.90;;
47413;SDS011;33163;0.000;0.000;2023-04-03T14:13:15;0.82;;;0.65;;
47413;SDS011;33163;0.000;0.000;2023-04-03T14:15:46;1.67;;;0.70;;
47413;SDS011;33163;0.000;0.000;2023-04-03T14:18:16;1.25;;;0.50;;
47413;SDS011;33163;0.000;0.000;2023-04-03T14:20:44;1.15;;;0.52;;
47413;SDS011;33163;0.000;0.000;2023-04-03T14:23:11;0.88;;;0.55;;
47413;SDS011;33163;0.000;0.000;2023-04-03T14:25:38;2.85;;;0.82;;
47413;SDS011;33163;0.000;0.000;2023-04-03T14:28:12;1.85;;;0.50;;
47413;SDS011;33163;0.000;0.000;2023-04-03T14:30:41;0.65;;;0.60;;
47413;SDS011;33163;0.000;0.000;2023-04-03T14:33:11;1.15;;;0.60;;
47413;SDS011;33163;0.000;0.000;2023-04-03T14:35:40;0.80;;;0.70;;
47413;SDS011;33163;0.000;0.000;2023-04-03T14:38:12;1.42;;;0.65;;
47413;SDS011;33163;0.000;0.000;2023-04-03T14:40:48;0.90;;;0.50;;
47413;SDS011;33163;0.000;0.000;2023-04-03T14:43:16;0.90;;;0.80;;
47413;SDS011;33163;0.000;0.000;2023-04-03T14:45:42;0.85;;;0.63;;
47413;SDS011;33163;0.000;0.000;2023-04-03T14:48:09;0.98;;;0.60;;
47413;SDS011;33163;0.000;0.000;2023-04-03T14:50:44;2.40;;;0.93;;
47413;SDS011;33163;0.000;0.000;2023-04-03T14:53:11;1.45;;;0.70;;
47413;SDS011;33163;0.000;0.000;2023-04-03T14:55:39;0.68;;;0.68;;
47413;SDS011;33163;0.000;0.000;2023-04-03T14:58:08;3.42;;;0.52;;
47413;SDS011;33163;0.000;0.000;2023-04-03T15:00:37;1.10;;;0.60;;
47413;SDS011;33163;0.000;0.000;2023-04-03T15:03:04;0.68;;;0.68;;
47413;SDS011;33163;0.000;0.000;2023-04-03T15:05:32;1.65;;;1.05;;
47413;SDS011;33163;0.000;0.000;2023-04-03T15:08:02;1.70;;;0.80;;
47413;SDS011;33163;0.000;0.000;2023-04-03T15:10:29;0.50;;;0.50;;
47413;SDS011;33163;0.000;0.000;2023-04-03T15:12:57;2.47;;;0.93;;
47413;SDS011;33163;0.000;0.000;2023-04-03T15:15:27;1.17;;;0.68;;
47413;SDS011;33163;0.000;0.000;2023-04-03T15:17:55;1.15;;;0.77;;
47413;SDS011;33163;0.000;0.000;2023-04-03T15:20:24;1.23;;;0.60;;
47413;SDS011;33163;0.000;0.000;2023-04-03T15:22:54;2.70;;;0.60;;
47413;SDS011;33163;0.000;0.000;2023-04-03T15:25:22;1.60;;;0.65;;
47413;SDS011;33163;0.000;0.000;2023-04-03T15:27:49;1.02;;;0.50;;
47413;SDS011;33163;0.000;0.000;2023-04-03T15:30:16;1.42;;;0.70;;
47413;SDS011;33163;0.000;0.000;2023-04-03T15:32:44;2.97;;;0.90;;
47413;SDS011;33163;0.000;0.000;2023-04-03T15:35:12;1.40;;;0.90;;
47413;SDS011;33163;0.000;0.000;2023-04-03T15:37:39;2.00;;;0.85;;